Fredericksburg, Texas
Current Conditions -  °F | °C
As of 2:35 AM on Saturday 20 Dec 2014 (Local Time) from KT82 Reporting Station
Overcast Overcast  
Wind Chill: 41°   Ceiling: 900
Heat Index: 45°   Visibility: 10mi
Dew Point: 42°   Wind: 6mph
Humidity: 90%   Direction: 20°NNE
Pressure: 30.18"   Gusts: NA
Location:  30.27°N, 98.87°W
Report Text: KT82 200835Z AUTO 02005KT 10SM OVC009 07/05 A3018 RMK AO2 T00700054
Loading
Personal Weather Stations






























Interactive Weather Map New forecast layout! Learn more

10-Day Weather Forecast

Advertisements
Track Severe Weather on mobile